Time;durP1;ratioP1;P1;durP2;ratioP2;P2;SDS_P1;SDS_P2;PMS_P1;PMS_P2;Temp;Humidity;BMP_temperature;BMP_pressure;BME280_temperature;BME280_humidity;BME280_pressure;Samples;Min_cycle;Max_cycle;Signal;HPM_P1;HPM_P2
2023/10/20 00:00:40;;;;;;;13.90;9.32;;;;;;;14.59;100.00;98377.88;5113111;28;20069;-91
2023/10/20 00:03:06;;;;;;;12.13;9.30;;;;;;;14.59;100.00;98380.59;5114167;28;20031;-90
2023/10/20 00:05:36;;;;;;;12.23;8.48;;;;;;;14.60;100.00;98384.94;5113581;28;20494;-90
2023/10/20 00:08:04;;;;;;;13.85;9.48;;;;;;;14.56;100.00;98382.81;5112988;28;20494;-90
2023/10/20 00:10:39;;;;;;;13.18;9.25;;;;;;;14.56;100.00;98379.28;5104395;28;20474;-90
2023/10/20 00:13:05;;;;;;;12.80;9.00;;;;;;;14.57;100.00;98367.25;5096528;28;20479;-90
2023/10/20 00:15:33;;;;;;;12.23;9.07;;;;;;;14.59;100.00;98365.03;5114231;28;20039;-90
2023/10/20 00:17:59;;;;;;;10.57;8.05;;;;;;;14.61;100.00;98353.81;5112867;28;20056;-90
2023/10/20 00:20:29;;;;;;;12.97;8.53;;;;;;;14.60;100.00;98354.91;5112642;28;20035;-90
2023/10/20 00:22:55;;;;;;;13.15;9.10;;;;;;;14.60;100.00;98353.03;5096357;28;20042;-90
2023/10/20 00:25:24;;;;;;;12.13;9.57;;;;;;;14.55;100.00;98344.91;5112516;28;20028;-90
2023/10/20 00:27:50;;;;;;;12.88;8.50;;;;;;;14.55;100.00;98336.72;5107886;28;20036;-91
2023/10/20 00:30:15;;;;;;;13.10;9.20;;;;;;;14.55;100.00;98337.53;5092210;28;20396;-91
2023/10/20 00:32:41;;;;;;;11.48;8.95;;;;;;;14.52;100.00;98324.50;5092126;28;20109;-91
2023/10/20 00:35:13;;;;;;;16.03;8.77;;;;;;;14.54;100.00;98321.47;5092501;28;20081;-89
2023/10/20 00:37:38;;;;;;;11.13;8.88;;;;;;;14.54;100.00;98310.56;5093062;28;20027;-90
2023/10/20 00:40:14;;;;;;;11.00;8.57;;;;;;;14.54;100.00;98303.19;5092401;28;20446;-91
2023/10/20 00:42:47;;;;;;;13.07;9.13;;;;;;;14.54;100.00;98291.44;5099377;28;20038;-91
2023/10/20 00:45:12;;;;;;;12.45;8.98;;;;;;;14.50;100.00;98283.06;5116696;28;20063;-91
2023/10/20 00:47:39;;;;;;;11.10;9.30;;;;;;;14.47;100.00;98286.41;5109971;28;20113;-91
2023/10/20 00:50:13;;;;;;;11.95;9.30;;;;;;;14.44;100.00;98278.00;5109986;28;20077;-93
2023/10/20 00:52:46;;;;;;;12.93;9.32;;;;;;;14.39;100.00;98277.03;5100132;28;20031;-91
2023/10/20 00:55:16;;;;;;;15.30;9.97;;;;;;;14.37;100.00;98272.97;5117235;27;20472;-91
2023/10/20 00:57:45;;;;;;;13.50;9.38;;;;;;;14.41;100.00;98267.72;5116266;28;20118;-91
2023/10/20 01:00:13;;;;;;;14.40;9.90;;;;;;;14.41;100.00;98268.53;5098670;28;20024;-91
2023/10/20 01:02:42;;;;;;;14.50;10.05;;;;;;;14.39;100.00;98260.66;5097384;28;20077;-91
2023/10/20 01:05:14;;;;;;;13.88;10.43;;;;;;;14.35;100.00;98259.66;5095481;28;20032;-91
2023/10/20 01:07:40;;;;;;;12.83;9.47;;;;;;;14.36;100.00;98252.25;5108099;28;20118;-92
2023/10/20 01:10:06;;;;;;;12.63;9.27;;;;;;;14.36;100.00;98253.09;5116306;28;20062;-91
2023/10/20 01:12:37;;;;;;;14.95;10.52;;;;;;;14.36;100.00;98239.44;5116657;28;20472;-88
2023/10/20 01:15:05;;;;;;;12.63;9.10;;;;;;;14.42;100.00;98242.84;5103624;28;20032;-91
2023/10/20 01:17:34;;;;;;;13.73;10.02;;;;;;;14.42;100.00;98234.69;5116139;28;20028;-92
2023/10/20 01:20:04;;;;;;;13.25;9.80;;;;;;;14.39;100.00;98218.91;5115980;28;20028;-91
2023/10/20 01:22:32;;;;;;;13.85;10.05;;;;;;;14.38;100.00;98212.66;5116968;28;20024;-92
2023/10/20 01:25:01;;;;;;;15.60;10.52;;;;;;;14.35;100.00;98207.81;5094967;28;20107;-91
2023/10/20 01:27:32;;;;;;;15.23;9.77;;;;;;;14.37;100.00;98218.44;5108740;28;20127;-92
2023/10/20 01:29:57;;;;;;;15.13;10.43;;;;;;;14.33;100.00;98206.50;5095395;28;20028;-91
2023/10/20 01:32:23;;;;;;;14.63;10.30;;;;;;;14.36;100.00;98200.44;5096559;28;20373;-91
2023/10/20 01:34:48;;;;;;;12.63;10.05;;;;;;;14.36;100.00;98198.53;5115708;28;20032;-91
2023/10/20 01:37:17;;;;;;;16.27;10.33;;;;;;;14.38;100.00;98206.41;5115191;28;20028;-91
2023/10/20 01:39:45;;;;;;;13.50;10.27;;;;;;;14.36;100.00;98205.91;5115281;28;20436;-91
2023/10/20 01:42:13;;;;;;;14.50;10.45;;;;;;;14.34;100.00;98205.41;5098657;28;20028;-91
2023/10/20 01:44:39;;;;;;;12.13;10.00;;;;;;;14.33;100.00;98214.69;5105522;28;20471;-91
2023/10/20 01:47:07;;;;;;;14.25;9.95;;;;;;;14.31;100.00;98204.09;5103487;28;20052;-91
2023/10/20 01:49:32;;;;;;;14.23;10.73;;;;;;;14.31;100.00;98197.84;5115226;28;20039;-91
2023/10/20 01:52:00;;;;;;;13.90;10.60;;;;;;;14.31;100.00;98189.66;5097502;28;20399;-91
2023/10/20 01:54:26;;;;;;;16.73;10.88;;;;;;;14.29;100.00;98195.41;5094883;28;20078;-91
2023/10/20 01:56:51;;;;;;;14.88;10.10;;;;;;;14.31;100.00;98193.19;5094228;28;20487;-91
2023/10/20 01:59:19;;;;;;;13.23;10.57;;;;;;;14.34;100.00;98189.84;5094693;28;20103;-91
2023/10/20 02:01:48;;;;;;;14.82;10.65;;;;;;;14.35;100.00;98172.38;5109927;28;20479;-91
2023/10/20 02:04:14;;;;;;;14.73;10.50;;;;;;;14.33;100.00;98163.66;5094946;28;20024;-92
2023/10/20 02:06:41;;;;;;;15.65;10.93;;;;;;;14.33;100.00;98149.22;5096074;28;20035;-91
2023/10/20 02:09:07;;;;;;;14.75;10.80;;;;;;;14.32;100.00;98151.16;5095760;28;20040;-91
2023/10/20 02:11:32;;;;;;;13.80;11.23;;;;;;;14.34;100.00;98143.47;5113748;28;20474;-91
2023/10/20 02:14:03;;;;;;;17.00;10.60;;;;;;;14.35;100.00;98139.63;5114997;28;20028;-91
2023/10/20 02:16:28;;;;;;;13.30;10.73;;;;;;;14.33;100.00;98141.03;5114797;28;20102;-91
2023/10/20 02:18:54;;;;;;;18.00;11.60;;;;;;;14.36;100.00;98148.63;5114723;28;20054;-91
2023/10/20 02:21:19;;;;;;;12.60;10.27;;;;;;;14.36;100.00;98135.81;5097676;28;20024;-91
2023/10/20 02:23:45;;;;;;;14.20;10.73;;;;;;;14.37;100.00;98131.94;5114672;28;20040;-91
2023/10/20 02:26:11;;;;;;;14.57;10.93;;;;;;;14.37;100.00;98131.16;5115361;28;20020;-91
2023/10/20 02:28:36;;;;;;;15.60;11.50;;;;;;;14.37;100.00;98126.50;5114331;28;20027;-91
2023/10/20 02:31:13;;;;;;;14.77;11.50;;;;;;;14.35;100.00;98108.81;5114261;28;20103;-91
2023/10/20 02:33:38;;;;;;;14.68;11.15;;;;;;;14.30;100.00;98112.47;5100111;28;20032;-91
2023/10/20 02:36:04;;;;;;;16.10;11.67;;;;;;;14.28;100.00;98092.09;5107572;28;20028;-91
2023/10/20 02:38:30;;;;;;;17.20;11.90;;;;;;;14.29;100.00;98096.41;5106557;28;20081;-91
2023/10/20 02:40:56;;;;;;;17.20;12.35;;;;;;;14.30;100.00;98081.66;5115741;28;20023;-90
2023/10/20 02:43:25;;;;;;;14.60;11.70;;;;;;;14.30;100.00;98084.38;5114067;28;20020;-91
2023/10/20 02:45:57;;;;;;;19.38;12.23;;;;;;;14.28;100.00;98081.97;5115357;28;20032;-91
2023/10/20 02:48:28;;;;;;;16.42;11.80;;;;;;;14.29;100.00;98086.31;5114280;28;20047;-90
2023/10/20 02:50:56;;;;;;;17.02;11.85;;;;;;;14.30;100.00;98071.56;5114196;28;20042;-91
2023/10/20 02:53:21;;;;;;;16.70;11.63;;;;;;;14.33;100.00;98057.28;5114078;28;20051;-91
2023/10/20 02:55:50;;;;;;;18.63;12.23;;;;;;;14.32;100.00;98058.44;5113855;28;20071;-91
2023/10/20 02:58:16;;;;;;;17.52;12.13;;;;;;;14.31;100.00;98054.09;5111683;28;20118;-91
2023/10/20 03:00:50;;;;;;;16.23;11.17;;;;;;;14.30;100.00;98054.41;5092929;28;20111;-91
2023/10/20 03:03:18;;;;;;;14.05;10.77;;;;;;;14.31;100.00;98040.44;5093260;28;20039;-91
2023/10/20 03:05:45;;;;;;;14.52;10.90;;;;;;;14.31;100.00;98029.53;5076372;28;20506;-91
2023/10/20 03:08:14;;;;;;;14.53;10.87;;;;;;;14.31;100.00;98018.63;5097737;28;20395;-91
2023/10/20 03:10:43;;;;;;;15.85;10.80;;;;;;;14.34;100.00;98007.09;5113846;28;20471;-91
2023/10/20 03:13:13;;;;;;;15.38;11.90;;;;;;;14.33;100.00;98016.38;5113900;28;20126;-91
2023/10/20 03:15:41;;;;;;;16.65;11.25;;;;;;;14.35;100.00;98013.34;5084421;28;20082;-91
2023/10/20 03:18:14;;;;;;;15.07;11.15;;;;;;;14.36;100.00;98017.69;5094256;28;20042;-91
2023/10/20 03:20:40;;;;;;;14.03;10.13;;;;;;;14.39;100.00;98031.53;5077186;28;20042;-92
2023/10/20 03:23:05;;;;;;;15.70;11.13;;;;;;;14.39;100.00;98026.09;5093589;28;20031;-91
2023/10/20 03:25:33;;;;;;;17.23;11.10;;;;;;;14.43;100.00;98009.09;5092911;28;20028;-92
2023/10/20 03:28:01;;;;;;;14.50;11.25;;;;;;;14.37;100.00;98011.94;5093399;28;20038;-90
2023/10/20 03:30:38;;;;;;;14.63;10.50;;;;;;;14.38;100.00;98004.56;5094017;28;20119;-91
2023/10/20 03:33:05;;;;;;;14.03;10.83;;;;;;;14.38;100.00;97999.91;5113708;28;20026;-91
2023/10/20 03:35:30;;;;;;;17.98;11.55;;;;;;;14.36;100.00;97990.41;5112743;28;20036;-91
2023/10/20 03:37:58;;;;;;;15.38;11.70;;;;;;;14.34;100.00;97984.47;5113521;28;20386;-91
2023/10/20 03:40:37;;;;;;;13.77;11.20;;;;;;;14.33;100.00;97977.41;5113484;28;20161;-91
2023/10/20 03:43:05;;;;;;;14.30;11.55;;;;;;;14.30;100.00;97978.81;5097889;28;20495;-91
2023/10/20 03:45:39;;;;;;;14.60;11.35;;;;;;;14.34;100.00;97989.94;5114462;28;20024;-91
2023/10/20 03:48:09;;;;;;;14.98;11.75;;;;;;;14.37;100.00;97992.84;5113385;28;20068;-91
2023/10/20 03:50:46;;;;;;;17.02;12.18;;;;;;;14.39;100.00;97987.06;5114716;28;20223;-92
2023/10/20 03:53:15;;;;;;;17.40;11.20;;;;;;;14.43;100.00;97979.09;5114850;28;20088;-92
2023/10/20 03:55:41;;;;;;;16.38;11.85;;;;;;;14.42;100.00;97944.75;5113108;28;20072;-91
2023/10/20 03:58:09;;;;;;;14.48;11.52;;;;;;;14.43;100.00;97952.59;5112433;28;20036;-91
2023/10/20 04:00:41;;;;;;;15.63;11.87;;;;;;;14.43;100.00;97960.00;5112909;28;20038;-90
2023/10/20 04:03:08;;;;;;;16.10;12.32;;;;;;;14.42;100.00;97961.91;5113034;28;20488;-91
2023/10/20 04:05:35;;;;;;;17.75;11.90;;;;;;;14.42;100.00;97956.44;5113000;28;20062;-92
2023/10/20 04:08:01;;;;;;;18.55;12.75;;;;;;;14.43;100.00;97958.06;5112742;28;20027;-91
2023/10/20 04:10:26;;;;;;;17.63;11.97;;;;;;;14.45;100.00;97947.63;5113283;28;20023;-91
2023/10/20 04:12:57;;;;;;;18.27;12.90;;;;;;;14.44;100.00;97937.84;5112944;28;20483;-91
2023/10/20 04:15:29;;;;;;;20.08;13.02;;;;;;;14.44;100.00;97924.22;5114159;28;20020;-91
2023/10/20 04:18:00;;;;;;;16.95;11.73;;;;;;;14.44;100.00;97932.41;5116194;28;20023;-91
2023/10/20 04:20:28;;;;;;;16.67;12.68;;;;;;;14.41;100.00;97915.84;5107315;28;20031;-91
2023/10/20 04:22:58;;;;;;;17.10;11.90;;;;;;;14.42;100.00;97901.88;5113505;28;20096;-91
2023/10/20 04:25:33;;;;;;;15.03;11.53;;;;;;;14.39;100.00;97906.06;5100323;28;20035;-91
2023/10/20 04:28:11;;;;;;;18.33;11.52;;;;;;;14.39;100.00;97907.97;5097800;28;20028;-91
2023/10/20 04:52:54;;;;;;;15.40;11.53;;;;;;;14.39;100.00;97840.59;5117844;28;20028;-91
2023/10/20 05:02:32;;;;;;;18.20;12.90;;;;;;;14.36;100.00;97832.22;5110597;28;20105;-91
2023/10/20 05:05:01;;;;;;;15.95;12.32;;;;;;;14.29;100.00;97812.78;5116009;28;20036;-91
2023/10/20 05:07:29;;;;;;;16.27;13.13;;;;;;;14.22;100.00;97807.81;5089418;28;20139;-91
2023/10/20 05:09:54;;;;;;;16.75;13.20;;;;;;;14.20;100.00;97801.84;5095716;28;20028;-92
2023/10/20 05:12:20;;;;;;;18.42;12.70;;;;;;;14.20;100.00;97797.22;5062414;28;20047;-91
2023/10/20 05:14:49;;;;;;;17.63;13.77;;;;;;;14.16;100.00;97798.94;5095783;28;20042;-91
2023/10/20 05:17:17;;;;;;;17.05;13.23;;;;;;;14.20;100.00;97804.56;5096082;28;20024;-91
2023/10/20 05:19:43;;;;;;;16.85;13.43;;;;;;;14.16;100.00;97796.22;5114231;28;20027;-92
2023/10/20 05:22:11;;;;;;;18.27;13.67;;;;;;;14.15;100.00;97788.34;5115624;28;20028;-91
2023/10/20 05:24:37;;;;;;;23.15;14.48;;;;;;;14.14;100.00;97773.09;5115741;28;20035;-91
2023/10/20 05:27:03;;;;;;;20.30;14.43;;;;;;;14.15;100.00;97775.53;5115876;28;20471;-91
2023/10/20 05:29:28;;;;;;;20.10;13.52;;;;;;;14.12;100.00;97776.16;5116370;28;20032;-90
2023/10/20 05:32:01;;;;;;;19.20;14.65;;;;;;;14.13;100.00;97780.50;5115714;28;20185;-89
2023/10/20 05:34:29;;;;;;;22.33;15.37;;;;;;;14.13;100.00;97798.75;5095993;28;20032;-91
2023/10/20 05:36:55;;;;;;;18.48;14.27;;;;;;;14.16;100.00;97801.66;5109529;28;20035;-92
2023/10/20 05:39:21;;;;;;;22.67;15.38;;;;;;;14.15;100.00;97802.78;5102662;28;20028;-92
2023/10/20 05:41:49;;;;;;;25.73;15.70;;;;;;;14.21;100.00;97801.53;5116954;27;20020;-92
2023/10/20 05:44:17;;;;;;;22.88;16.08;;;;;;;14.22;100.00;97799.63;5116257;28;20031;-91
2023/10/20 05:46:43;;;;;;;24.52;15.48;;;;;;;14.23;100.00;97779.38;5102164;28;20109;-90
2023/10/20 05:49:11;;;;;;;20.55;15.80;;;;;;;14.21;100.00;97785.16;5110064;28;20488;-90
2023/10/20 05:51:37;;;;;;;21.10;15.77;;;;;;;14.22;100.00;97786.00;5096208;28;20103;-90
2023/10/20 05:54:08;;;;;;;21.65;17.40;;;;;;;14.19;100.00;97778.44;5103970;28;20059;-90
2023/10/20 05:56:34;;;;;;;20.43;16.10;;;;;;;14.19;100.00;97775.72;5114901;28;20126;-88
2023/10/20 05:59:00;;;;;;;21.85;16.33;;;;;;;14.18;100.00;97763.97;5107087;28;20112;-88
2023/10/20 06:01:30;;;;;;;21.57;16.60;;;;;;;14.17;100.00;97769.75;5094642;28;20028;-89
2023/10/20 06:03:55;;;;;;;21.70;16.55;;;;;;;14.16;100.00;97768.94;5102772;28;20052;-88
2023/10/20 06:06:26;;;;;;;22.70;17.20;;;;;;;14.17;100.00;97767.84;5101800;28;20027;-88
2023/10/20 06:08:51;;;;;;;23.52;17.75;;;;;;;14.15;100.00;97761.88;5094902;28;20028;-88
2023/10/20 06:11:19;;;;;;;12.70;8.97;;;;;;;14.31;100.00;97759.53;5095858;28;20039;-84
2023/10/20 06:13:45;;;;;;;15.02;9.65;;;;;;;14.54;100.00;97754.00;5114450;28;20392;-86
2023/10/20 06:16:12;;;;;;;14.17;10.83;;;;;;;14.77;100.00;97767.56;5115551;28;20104;-86
2023/10/20 06:18:40;;;;;;;15.52;11.25;;;;;;;14.91;100.00;97785.41;5097325;28;20023;-86
2023/10/20 06:21:14;;;;;;;15.98;13.10;;;;;;;14.94;100.00;97783.97;5098753;27;20032;-85
2023/10/20 06:23:40;;;;;;;14.05;10.70;;;;;;;15.10;100.00;97778.84;5093870;28;20059;-86
2023/10/20 06:26:08;;;;;;;13.23;10.53;;;;;;;15.19;100.00;97752.34;5091042;28;20100;-85
2023/10/20 06:28:33;;;;;;;16.25;12.07;;;;;;;15.28;100.00;97749.63;5106719;28;20046;-85
2023/10/20 06:31:20;;;;;;;14.27;10.65;;;;;;;15.33;100.00;97751.38;5113945;28;20468;-85
2023/10/20 06:33:47;;;;;;;16.63;11.32;;;;;;;15.39;100.00;97753.63;5113951;28;20035;-86
2023/10/20 06:36:16;;;;;;;12.07;10.00;;;;;;;15.47;100.00;97759.41;5080785;28;20028;-85
2023/10/20 06:38:45;;;;;;;12.13;10.25;;;;;;;15.48;100.00;97769.22;5080701;28;20054;-86
2023/10/20 06:41:13;;;;;;;14.10;11.20;;;;;;;15.46;100.00;97774.19;5100425;28;20027;-85
2023/10/20 06:43:39;;;;;;;13.55;9.63;;;;;;;15.43;100.00;97764.72;5096194;28;20050;-87
2023/10/20 06:46:14;;;;;;;13.88;11.15;;;;;;;15.43;100.00;97759.25;5081871;28;20036;-85
2023/10/20 06:48:39;;;;;;;13.33;10.67;;;;;;;15.41;100.00;97753.28;5080832;28;20081;-87
2023/10/20 06:51:04;;;;;;;17.07;10.10;;;;;;;15.43;100.00;97748.31;5104337;28;20423;-86
2023/10/20 06:53:30;;;;;;;14.20;9.47;;;;;;;15.52;100.00;97743.66;5079056;28;20286;-85
2023/10/20 06:55:56;;;;;;;13.80;9.37;;;;;;;15.59;100.00;97746.69;5104073;28;20040;-85
2023/10/20 06:58:21;;;;;;;11.88;9.50;;;;;;;15.64;100.00;97739.47;5095438;28;20024;-86
2023/10/20 07:00:47;;;;;;;12.07;10.23;;;;;;;15.65;100.00;97736.41;5105590;28;20030;-86
2023/10/20 07:03:13;;;;;;;13.10;9.70;;;;;;;15.66;100.00;97729.00;5106596;28;20047;-86
2023/10/20 07:05:40;;;;;;;13.73;10.38;;;;;;;15.64;100.00;97748.44;5094843;28;20028;-87
2023/10/20 07:08:06;;;;;;;17.25;10.98;;;;;;;15.58;100.00;97738.81;5106800;28;20036;-86
2023/10/20 07:10:39;;;;;;;13.82;10.77;;;;;;;15.54;100.00;97744.13;5085916;28;20055;-87
2023/10/20 07:13:08;;;;;;;11.50;10.30;;;;;;;15.54;100.00;97740.59;5114749;28;20057;-86
2023/10/20 07:15:34;;;;;;;14.13;10.90;;;;;;;15.52;100.00;97740.13;5114902;28;20028;-86
2023/10/20 07:18:00;;;;;;;11.55;10.35;;;;;;;15.54;100.00;97735.13;5099509;28;20119;-85
2023/10/20 07:20:26;;;;;;;11.38;10.10;;;;;;;15.57;100.00;97735.25;5096052;28;20055;-85
2023/10/20 07:22:52;;;;;;;11.20;10.10;;;;;;;15.61;100.00;97738.16;5110381;28;20035;-85
2023/10/20 07:25:18;;;;;;;10.57;9.40;;;;;;;15.66;100.00;97727.06;5066304;28;20115;-85
2023/10/20 07:27:43;;;;;;;10.60;9.60;;;;;;;15.75;100.00;97738.78;5107196;28;20055;-85
2023/10/20 07:30:12;;;;;;;10.53;9.43;;;;;;;15.75;100.00;97730.59;5103092;28;20067;-88
2023/10/20 07:32:38;;;;;;;27.05;10.40;;;;;;;15.72;100.00;97733.97;5114464;28;20051;-89
2023/10/20 07:35:04;;;;;;;13.93;9.83;;;;;;;15.64;100.00;97728.53;5115228;28;20030;-90
2023/10/20 07:37:32;;;;;;;10.63;9.52;;;;;;;15.53;100.00;97730.78;5113857;28;20024;-89
2023/10/20 07:39:58;;;;;;;10.60;9.50;;;;;;;15.41;100.00;97729.53;5096010;28;20032;-90
2023/10/20 07:42:24;;;;;;;11.40;10.27;;;;;;;15.36;100.00;97723.44;5107855;28;20016;-90
2023/10/20 07:44:54;;;;;;;10.13;9.03;;;;;;;15.25;100.00;97722.94;5085718;28;20029;-89
2023/10/20 07:47:23;;;;;;;15.43;10.40;;;;;;;15.19;100.00;97721.50;5111915;28;20024;-90
2023/10/20 07:49:50;;;;;;;11.30;10.07;;;;;;;15.13;100.00;97717.31;5113004;28;20030;-89
2023/10/20 07:52:16;;;;;;;11.70;10.13;;;;;;;15.05;100.00;97699.84;5112797;28;20118;-90
2023/10/20 07:54:46;;;;;;;11.57;9.65;;;;;;;14.99;100.00;97707.38;5083142;28;20052;-89
2023/10/20 07:57:13;;;;;;;11.77;9.63;;;;;;;14.92;100.00;97701.59;5075964;28;20156;-90
2023/10/20 07:59:41;;;;;;;17.38;8.10;;;;;;;14.99;100.00;97699.19;5094451;28;20074;-92
2023/10/20 08:02:09;;;;;;;16.63;8.50;;;;;;;14.91;100.00;97678.13;5098991;28;20028;-89
2023/10/20 08:04:43;;;;;;;10.02;8.98;;;;;;;14.87;100.00;97685.38;5105681;28;20044;-92
2023/10/20 08:07:12;;;;;;;10.07;9.05;;;;;;;14.84;100.00;97686.81;5103053;28;20036;-90
2023/10/20 08:09:40;;;;;;;9.80;8.63;;;;;;;14.72;100.00;97692.13;5103894;28;20426;-88
2023/10/20 08:12:13;;;;;;;10.70;8.32;;;;;;;14.70;100.00;97687.00;5084100;28;20043;-91
2023/10/20 08:14:41;;;;;;;8.68;7.78;;;;;;;14.73;100.00;97688.25;5112998;28;20453;-86
2023/10/20 08:17:07;;;;;;;8.50;7.32;;;;;;;14.68;100.00;97693.88;5116230;28;20159;-89
2023/10/20 08:19:35;;;;;;;9.15;7.20;;;;;;;14.70;100.00;97691.63;5095717;28;20361;-89
2023/10/20 08:22:03;;;;;;;7.90;6.70;;;;;;;14.64;100.00;97692.91;5102745;28;20027;-94
2023/10/20 08:24:30;;;;;;;7.70;6.90;;;;;;;14.62;100.00;97687.78;5108197;28;20020;-89
2023/10/20 08:26:57;;;;;;;6.78;6.10;;;;;;;14.55;100.00;97682.75;5102982;28;20050;-90
2023/10/20 08:29:34;;;;;;;7.75;6.32;;;;;;;14.59;100.00;97696.56;5112961;28;20026;-91
2023/10/20 08:32:03;;;;;;;6.05;5.45;;;;;;;14.54;100.00;97702.97;5112968;28;20045;-91
2023/10/20 08:34:34;;;;;;;6.93;5.70;;;;;;;14.52;100.00;97704.41;5112172;28;20077;-91
2023/10/20 08:37:01;;;;;;;6.90;5.60;;;;;;;14.49;100.00;97697.66;5082363;28;20051;-91
2023/10/20 08:39:27;;;;;;;5.75;5.20;;;;;;;14.48;100.00;97704.25;5099707;28;20088;-92
2023/10/20 08:41:57;;;;;;;5.70;5.05;;;;;;;14.46;100.00;97700.22;5112261;28;20062;-93
2023/10/20 08:44:27;;;;;;;5.93;5.10;;;;;;;14.47;100.00;97696.41;5113059;28;20026;-90
2023/10/20 08:46:53;;;;;;;5.13;4.57;;;;;;;14.47;100.00;97689.00;5111532;28;20039;-91
2023/10/20 08:49:25;;;;;;;5.20;4.70;;;;;;;14.45;100.00;97685.78;5104254;28;20543;-90
2023/10/20 08:51:55;;;;;;;5.55;4.85;;;;;;;14.42;100.00;97697.31;5094298;28;20118;-91
2023/10/20 08:54:25;;;;;;;5.55;4.15;;;;;;;14.38;100.00;97688.19;5087534;28;20024;-90
2023/10/20 08:56:52;;;;;;;5.83;4.43;;;;;;;14.31;100.00;97694.09;5108932;28;20114;-90
2023/10/20 08:59:22;;;;;;;4.50;4.10;;;;;;;14.28;100.00;97683.81;5112070;28;20035;-91
2023/10/20 09:01:51;;;;;;;4.93;4.20;;;;;;;14.29;100.00;97676.44;5112014;28;20111;-90
2023/10/20 09:04:21;;;;;;;5.90;4.28;;;;;;;14.27;100.00;97681.41;5101826;28;20062;-91
2023/10/20 09:06:49;;;;;;;4.43;4.00;;;;;;;14.24;100.00;97687.50;5109087;28;20088;-91
2023/10/20 09:09:26;;;;;;;4.37;3.60;;;;;;;14.24;100.00;97690.22;5107820;28;20395;-90
2023/10/20 09:11:54;;;;;;;3.30;3.00;;;;;;;14.20;100.00;97693.59;5115897;28;20032;-90
2023/10/20 09:14:20;;;;;;;3.67;3.38;;;;;;;14.19;100.00;97689.25;5101384;28;20032;-91
2023/10/20 09:16:55;;;;;;;3.90;3.40;;;;;;;14.20;100.00;97692.78;5095179;28;20032;-90
2023/10/20 09:19:22;;;;;;;4.32;3.42;;;;;;;14.23;100.00;97686.69;5097102;28;20046;-91
2023/10/20 09:22:00;;;;;;;;;;;;;;;;;;;;;
2023/10/20 09:24:39;;;;;;;3.20;2.90;;;;;;;14.20;100.00;97676.41;5116972;28;20472;-92
2023/10/20 09:27:11;;;;;;;4.05;2.72;;;;;;;14.21;100.00;97669.84;5116263;28;20036;-91
2023/10/20 09:29:40;;;;;;;5.10;2.80;;;;;;;14.11;100.00;97664.69;5099837;28;20032;-91
2023/10/20 09:32:08;;;;;;;3.20;2.90;;;;;;;14.08;100.00;97668.06;5116598;28;20199;-91
2023/10/20 09:34:35;;;;;;;5.43;2.60;;;;;;;14.08;100.00;97671.56;5110500;28;20076;-90
2023/10/20 09:37:01;;;;;;;3.42;2.20;;;;;;;14.08;100.00;97676.22;5087772;28;20043;-90
2023/10/20 09:39:38;;;;;;;7.25;2.55;;;;;;;14.24;100.00;97680.13;5115338;28;20034;-92
2023/10/20 09:42:21;;;;;;;5.97;2.50;;;;;;;14.46;100.00;97673.75;5114469;28;20030;-91
2023/10/20 09:45:05;;;;;;;22.42;2.92;;;;;;;14.74;100.00;97673.50;5095895;28;20387;-94
2023/10/20 09:47:35;;;;;;;19.92;2.67;;;;;;;14.91;100.00;97672.69;5115225;28;20028;-84
2023/10/20 09:50:01;;;;;;;235.13;22.08;;;;;;;15.09;100.00;97663.38;5116497;28;20118;-95
2023/10/20 09:52:29;;;;;;;30.77;3.45;;;;;;;15.16;100.00;97662.06;5115619;28;20032;-87
2023/10/20 09:54:55;;;;;;;1999.90;346.40;;;;;;;15.40;100.00;97667.03;5098523;28;20058;-91
2023/10/20 09:57:21;;;;;;;245.23;20.67;;;;;;;15.51;100.00;97660.06;5095186;28;20036;-94
2023/10/20 10:00:03;;;;;;;60.92;5.63;;;;;;;15.64;100.00;97663.72;5095589;28;20097;-88
2023/10/20 10:02:30;;;;;;;14.18;2.33;;;;;;;15.71;100.00;97665.97;5115686;28;20076;-85
2023/10/20 10:05:02;;;;;;;7.65;1.40;;;;;;;15.73;100.00;97671.91;5115577;28;20060;-91
2023/10/20 10:07:28;;;;;;;14.80;1.90;;;;;;;15.69;100.00;97666.28;5115828;28;20049;-85
2023/10/20 10:09:57;;;;;;;6.30;1.50;;;;;;;15.68;100.00;97661.13;5112809;27;20023;-96
2023/10/20 10:12:25;;;;;;;7.60;2.03;;;;;;;15.79;100.00;97660.47;5085279;28;20036;-89
2023/10/20 10:15:05;;;;;;;7.03;1.25;;;;;;;15.84;100.00;97648.59;5103943;28;20395;-87
2023/10/20 10:17:33;;;;;;;9.88;1.35;;;;;;;15.88;100.00;97651.44;5114463;28;20464;-89
2023/10/20 10:20:01;;;;;;;11.88;1.73;;;;;;;15.87;100.00;97650.66;5114510;28;20035;-89
2023/10/20 10:22:30;;;;;;;8.73;1.20;;;;;;;15.92;100.00;97649.66;5093639;28;20024;-90
2023/10/20 10:25:07;;;;;;;8.27;0.98;;;;;;;15.92;100.00;97646.94;5106573;28;20032;-90
2023/10/20 10:27:32;;;;;;;2.72;0.90;;;;;;;15.94;100.00;97645.47;5101641;28;20469;-89
2023/10/20 10:30:05;;;;;;;5.13;1.20;;;;;;;15.96;100.00;97645.16;5114258;28;20038;-90
2023/10/20 10:32:36;;;;;;;3.28;1.02;;;;;;;15.95;100.00;97641.59;5105653;28;20028;-90
2023/10/20 10:35:03;;;;;;;2.55;0.98;;;;;;;15.99;100.00;97641.75;5094115;28;20035;-90
2023/10/20 10:37:48;;;;;;;15.77;1.50;;;;;;;16.08;100.00;97633.50;5091771;28;20456;-88
2023/10/20 10:40:26;;;;;;;;;;;;;;;;;;;;;
2023/10/20 10:42:52;;;;;;;17.77;1.52;;;;;;;16.08;100.00;97628.03;5095937;28;20016;-90
2023/10/20 10:45:30;;;;;;;8.43;1.60;;;;;;;16.14;100.00;97627.50;5095225;28;20036;-90
2023/10/20 10:48:10;;;;;;;10.00;1.30;;;;;;;16.17;100.00;97622.53;5104106;28;20028;-89
2023/10/20 10:50:40;;;;;;;6.10;1.33;;;;;;;16.19;100.00;97617.50;5093414;28;20020;-90
2023/10/20 10:53:07;;;;;;;5.50;1.00;;;;;;;16.21;100.00;97610.59;5106252;28;20028;-89
2023/10/20 10:55:35;;;;;;;4.57;1.48;;;;;;;16.24;100.00;97603.63;5113947;28;20066;-88
2023/10/20 10:58:07;;;;;;;7.65;1.98;;;;;;;16.23;100.00;97602.84;5100055;28;20024;-90
2023/10/20 11:00:35;;;;;;;21.67;1.70;;;;;;;16.28;100.00;97591.72;5093852;28;20173;-95
2023/10/20 11:03:04;;;;;;;12.38;1.58;;;;;;;16.33;100.00;97584.41;5094484;28;20036;-89
2023/10/20 11:05:32;;;;;;;9.87;1.30;;;;;;;16.39;100.00;97574.91;5105261;28;20062;-92
2023/10/20 11:15:10;;;;;;;1.70;0.80;;;;;;;15.99;100.00;97586.25;5032900;28;20037;-94
2023/10/20 11:21:00;;;;;;;1.10;0.90;;;;;;;15.60;100.00;97558.94;5034749;28;20612;-96
2023/10/20 11:23:33;;;;;;;1.70;1.20;;;;;;;15.46;100.00;97552.88;5002314;28;20029;-96
2023/10/20 11:25:58;;;;;;;2.03;1.30;;;;;;;15.42;100.00;97558.22;5020308;28;20033;-96
2023/10/20 17:10:04;;;;;;;7.07;4.30;;;;;;;13.25;100.00;97806.31;5182646;23;20064;-93
2023/10/20 17:12:59;;;;;;;7.75;4.20;;;;;;;13.24;100.00;97801.19;4867762;29;20081;-91
2023/10/20 17:15:27;;;;;;;6.03;4.07;;;;;;;13.17;100.00;97801.63;4848732;29;20100;-91
2023/10/20 17:18:04;;;;;;;7.05;4.53;;;;;;;13.14;100.00;97803.03;4905451;29;20103;-92
2023/10/20 17:20:54;;;;;;;5.10;4.03;;;;;;;13.15;100.00;97809.28;4881518;29;20541;-91
2023/10/20 17:26:45;;;;;;;;;;;;;;;;;;;;;
2023/10/20 17:29:42;;;;;;;5.90;3.78;;;;;;;13.05;100.00;97815.75;4901900;29;20028;-92
2023/10/20 17:32:43;;;;;;;;;;;;;;;;;;;;;
2023/10/20 17:35:18;;;;;;;4.67;3.53;;;;;;;12.98;100.00;97818.88;4890210;29;20032;-92
2023/10/20 17:37:50;;;;;;;4.05;3.05;;;;;;;12.95;100.00;97824.94;4885276;29;20039;-92
2023/10/20 17:40:21;;;;;;;4.85;3.47;;;;;;;12.94;100.00;97830.69;4885034;29;20037;-93
2023/10/20 17:43:04;;;;;;;5.93;3.78;;;;;;;12.95;100.00;97832.31;4880599;29;20135;-93
2023/10/20 17:45:35;;;;;;;3.95;3.20;;;;;;;12.91;100.00;97826.66;4866391;29;20446;-92
2023/10/20 17:48:03;;;;;;;5.47;3.53;;;;;;;12.92;100.00;97822.84;4886626;29;20036;-92
2023/10/20 17:51:10;;;;;;;4.85;3.08;;;;;;;12.93;100.00;97832.63;4899342;29;20036;-92
2023/10/20 17:57:13;;;;;;;;;;;;;;;;;;;;;
2023/10/20 17:59:43;;;;;;;4.88;3.58;;;;;;;12.91;100.00;97844.91;4881094;29;20046;-92